UNO1245 PGUA-YBTL
Flight info
| Callsign | UNO1245 |
|---|---|
| Flight time | N/A |
| Altitude | 27000 |
| Route | DCT ASADE B586 KAPOK/N0486F290 B586 NUTTI DCT 02N146E DCT PIKOK DCT PADLU DCT BEMGO/N0448F310 DCT KAPSO DCT 15S147E/N0445F320 DCT IBUXI IBUXI2Z |
| Aircraft | C17/H-SDE1E2FGHIJ5RTUWXY/LB1D1 |
Departure
| Time | 2026-05-05 17:37 |
|---|---|
| Airport | Andersen Air Force Base (PGUA) |
Arrival
| Time | N/A |
|---|---|
| Airport | Townsville Airport / RAAF Base Townsville (YBTL) |
| Time | Latitude | Longitude | Altitude | Speed | Heading |
|---|---|---|---|---|---|
| 2026-05-05 17:22 | 13.57153 | 144.91883 | 585 ft | 0 kts | 1° |
| 2026-05-05 17:32 | 13.57170 | 144.91885 | 585 ft | 4 kts | 14° |
| 2026-05-05 17:33 | 13.57195 | 144.91912 | 585 ft | 6 kts | 64° |
| 2026-05-05 17:33 | 13.57188 | 144.91948 | 585 ft | 5 kts | 139° |
| 2026-05-05 17:33 | 13.57147 | 144.91967 | 585 ft | 8 kts | 176° |
| 2026-05-05 17:33 | 13.57107 | 144.91927 | 585 ft | 10 kts | 242° |
| 2026-05-05 17:34 | 13.57076 | 144.91857 | 585 ft | 12 kts | 246° |
| 2026-05-05 17:34 | 13.57079 | 144.91775 | 585 ft | 12 kts | 290° |
| 2026-05-05 17:34 | 13.57125 | 144.91698 | 585 ft | 13 kts | 329° |
| 2026-05-05 17:34 | 13.57212 | 144.91657 | 585 ft | 14 kts | 335° |
| 2026-05-05 17:35 | 13.57308 | 144.91628 | 585 ft | 15 kts | 12° |
| 2026-05-05 17:35 | 13.57404 | 144.91667 | 584 ft | 15 kts | 22° |
| 2026-05-05 17:35 | 13.57441 | 144.91682 | 583 ft | 0 kts | 22° |
| 2026-05-05 17:35 | 13.57459 | 144.91690 | 581 ft | 9 kts | 21° |
| 2026-05-05 17:36 | 13.57571 | 144.91742 | 568 ft | 20 kts | 43° |
| 2026-05-05 17:36 | 13.57586 | 144.91770 | 570 ft | 0 kts | 66° |
| 2026-05-05 17:36 | 13.57635 | 144.91885 | 569 ft | 52 kts | 65° |
| 2026-05-05 17:37 | 13.57891 | 144.92468 | 570 ft | 124 kts | 65° |
| 2026-05-05 17:37 | 13.58345 | 144.93412 | 806 ft | 158 kts | 62° |
| 2026-05-05 17:37 | 13.58971 | 144.94356 | 1655 ft | 160 kts | 53° |
| 2026-05-05 17:37 | 13.59764 | 144.95159 | 2360 ft | 168 kts | 46° |
| 2026-05-05 17:38 | 13.60746 | 144.96025 | 2044 ft | 198 kts | 45° |
| 2026-05-05 17:38 | 13.61723 | 144.96920 | 1904 ft | 183 kts | 46° |
| 2026-05-05 17:38 | 13.62668 | 144.97801 | 2216 ft | 182 kts | 49° |
| 2026-05-05 17:38 | 13.63636 | 144.98699 | 2739 ft | 190 kts | 49° |
| 2026-05-05 17:39 | 13.64593 | 144.99611 | 3231 ft | 184 kts | 48° |
| 2026-05-05 17:39 | 13.65746 | 145.00203 | 3656 ft | 202 kts | 13° |
| 2026-05-05 17:39 | 13.67219 | 145.00087 | 4209 ft | 218 kts | 1° |
| 2026-05-05 17:39 | 13.68721 | 144.99875 | 4725 ft | 216 kts | 2° |
| 2026-05-05 17:40 | 13.70216 | 144.99663 | 5205 ft | 219 kts | 0° |
| 2026-05-05 17:40 | 13.71658 | 144.99849 | 5682 ft | 201 kts | 37° |
| 2026-05-05 17:40 | 13.72442 | 145.00925 | 6165 ft | 186 kts | 82° |
| 2026-05-05 17:40 | 13.72332 | 145.02257 | 6708 ft | 197 kts | 100° |
| 2026-05-05 17:41 | 13.72048 | 145.03675 | 7247 ft | 203 kts | 101° |
| 2026-05-05 17:41 | 13.71718 | 145.05045 | 7741 ft | 199 kts | 111° |
| 2026-05-05 17:41 | 13.70831 | 145.06164 | 8232 ft | 213 kts | 141° |
| 2026-05-05 17:41 | 13.69379 | 145.06601 | 8742 ft | 230 kts | 178° |
| 2026-05-05 17:42 | 13.67870 | 145.05921 | 9273 ft | 250 kts | 218° |
| 2026-05-05 17:42 | 13.66660 | 145.04630 | 9838 ft | 249 kts | 208° |
| 2026-05-05 17:42 | 13.65148 | 145.03884 | 10367 ft | 243 kts | 195° |
| 2026-05-05 17:42 | 13.63527 | 145.03365 | 10874 ft | 245 kts | 186° |
| 2026-05-05 17:43 | 13.61810 | 145.03118 | 11176 ft | 252 kts | 184° |
| 2026-05-05 17:43 | 13.60027 | 145.02817 | 11663 ft | 270 kts | 187° |
| 2026-05-05 17:43 | 13.58117 | 145.02372 | 12249 ft | 292 kts | 188° |
| 2026-05-05 17:43 | 13.56068 | 145.01862 | 12833 ft | 313 kts | 188° |
| 2026-05-05 17:44 | 13.53897 | 145.01356 | 13402 ft | 322 kts | 189° |
| 2026-05-05 17:44 | 13.51727 | 145.00855 | 13927 ft | 327 kts | 188° |
| 2026-05-05 17:44 | 13.49485 | 145.00331 | 14383 ft | 334 kts | 189° |
| 2026-05-05 17:44 | 13.47207 | 144.99798 | 14833 ft | 336 kts | 189° |
| 2026-05-05 17:45 | 13.44919 | 144.99263 | 15282 ft | 335 kts | 190° |
| 2026-05-05 17:45 | 13.42634 | 144.98730 | 15742 ft | 338 kts | 191° |
| 2026-05-05 17:45 | 13.40325 | 144.98193 | 16215 ft | 342 kts | 190° |
| 2026-05-05 17:45 | 13.37996 | 144.97652 | 16621 ft | 343 kts | 191° |
| 2026-05-05 17:46 | 13.35662 | 144.97106 | 17097 ft | 344 kts | 191° |
| 2026-05-05 17:46 | 13.33315 | 144.96558 | 17597 ft | 347 kts | 191° |
| 2026-05-05 17:46 | 13.30968 | 144.96010 | 18103 ft | 352 kts | 188° |
| 2026-05-05 17:46 | 13.28560 | 144.95452 | 18556 ft | 357 kts | 189° |
| 2026-05-05 17:47 | 13.26139 | 144.94886 | 18995 ft | 357 kts | 189° |
| 2026-05-05 17:47 | 13.23708 | 144.94320 | 19450 ft | 360 kts | 190° |
| 2026-05-05 17:47 | 13.21249 | 144.93748 | 19909 ft | 364 kts | 190° |
| 2026-05-05 17:47 | 13.18769 | 144.93171 | 20377 ft | 368 kts | 191° |
| 2026-05-05 17:48 | 13.16247 | 144.92584 | 20852 ft | 373 kts | 191° |
| 2026-05-05 17:48 | 13.13714 | 144.91995 | 21325 ft | 374 kts | 191° |
| 2026-05-05 17:48 | 13.11204 | 144.91411 | 21801 ft | 375 kts | 192° |
| 2026-05-05 17:48 | 13.08612 | 144.90809 | 22306 ft | 380 kts | 191° |
| 2026-05-05 17:49 | 13.06017 | 144.90206 | 22817 ft | 383 kts | 192° |
| 2026-05-05 17:49 | 13.03415 | 144.89600 | 23313 ft | 384 kts | 192° |
| 2026-05-05 17:49 | 13.00833 | 144.89000 | 23769 ft | 387 kts | 192° |
| 2026-05-05 17:49 | 12.98193 | 144.88386 | 24204 ft | 390 kts | 192° |
| 2026-05-05 17:50 | 12.95543 | 144.87771 | 24650 ft | 390 kts | 192° |
| 2026-05-05 17:50 | 12.92896 | 144.87156 | 25080 ft | 391 kts | 193° |
| 2026-05-05 17:50 | 12.90230 | 144.86537 | 25542 ft | 393 kts | 193° |
| 2026-05-05 17:50 | 12.87560 | 144.85917 | 25999 ft | 394 kts | 192° |
| 2026-05-05 17:51 | 12.84874 | 144.85294 | 26466 ft | 397 kts | 193° |
| 2026-05-05 17:51 | 12.82155 | 144.84664 | 26945 ft | 402 kts | 193° |
| 2026-05-05 17:51 | 12.79405 | 144.84172 | 27420 ft | 401 kts | 181° |
| 2026-05-05 17:51 | 12.76626 | 144.84408 | 27947 ft | 401 kts | 172° |
| 2026-05-05 17:52 | 12.73841 | 144.84860 | 28464 ft | 409 kts | 172° |
| 2026-05-05 17:52 | 12.71052 | 144.85345 | 28847 ft | 416 kts | 172° |
| 2026-05-05 17:52 | 12.68176 | 144.85811 | 28872 ft | 421 kts | 173° |
| 2026-05-05 17:52 | 12.65220 | 144.86265 | 28886 ft | 438 kts | 173° |
| 2026-05-05 17:53 | 12.62159 | 144.86751 | 28881 ft | 448 kts | 172° |
| 2026-05-05 17:53 | 12.55922 | 144.87770 | 28884 ft | 457 kts | 172° |
| 2026-05-05 17:54 | 12.49705 | 144.88762 | 28876 ft | 453 kts | 172° |
| 2026-05-05 17:54 | 12.43456 | 144.89767 | 28878 ft | 456 kts | 172° |
| 2026-05-05 17:55 | 12.37187 | 144.90772 | 28876 ft | 454 kts | 172° |
| 2026-05-05 17:55 | 12.30939 | 144.91774 | 28868 ft | 454 kts | 172° |
| 2026-05-05 17:56 | 12.24665 | 144.92780 | 28872 ft | 457 kts | 172° |
| 2026-05-05 17:56 | 12.18434 | 144.93778 | 28868 ft | 454 kts | 172° |
| 2026-05-05 17:57 | 12.12186 | 144.94780 | 28870 ft | 454 kts | 172° |
| 2026-05-05 17:57 | 12.05964 | 144.95772 | 28862 ft | 451 kts | 172° |
| 2026-05-05 17:58 | 11.99705 | 144.96776 | 28864 ft | 459 kts | 171° |
| 2026-05-05 17:58 | 11.93398 | 144.97784 | 28865 ft | 458 kts | 171° |
| 2026-05-05 17:59 | 11.87134 | 144.98786 | 28864 ft | 453 kts | 172° |
| 2026-05-05 17:59 | 11.80884 | 144.99781 | 28856 ft | 456 kts | 172° |
| 2026-05-05 18:00 | 11.74619 | 145.00563 | 28860 ft | 457 kts | 171° |
| 2026-05-05 18:00 | 11.68298 | 145.01494 | 28857 ft | 459 kts | 174° |
| 2026-05-05 18:01 | 11.61948 | 145.02251 | 28864 ft | 458 kts | 172° |
| 2026-05-05 18:01 | 11.55623 | 145.03122 | 28862 ft | 459 kts | 173° |
| 2026-05-05 18:02 | 11.49326 | 145.03917 | 28864 ft | 458 kts | 173° |
| 2026-05-05 18:02 | 11.43016 | 145.04754 | 28860 ft | 457 kts | 173° |
| 2026-05-05 18:03 | 11.36655 | 145.05576 | 28858 ft | 463 kts | 173° |
| 2026-05-05 18:03 | 11.30285 | 145.06409 | 28852 ft | 460 kts | 173° |
| 2026-05-05 18:04 | 11.23924 | 145.07236 | 28848 ft | 461 kts | 173° |
| 2026-05-05 18:04 | 11.17588 | 145.08061 | 28850 ft | 461 kts | 173° |
| 2026-05-05 18:05 | 11.11234 | 145.08887 | 28844 ft | 460 kts | 172° |
| 2026-05-05 18:05 | 11.04853 | 145.09717 | 28849 ft | 463 kts | 172° |
| 2026-05-05 18:06 | 10.98464 | 145.10548 | 28846 ft | 461 kts | 172° |
| 2026-05-05 18:06 | 10.92084 | 145.11376 | 28846 ft | 463 kts | 172° |
| 2026-05-05 18:07 | 10.85696 | 145.12206 | 28846 ft | 462 kts | 172° |
| 2026-05-05 18:07 | 10.79366 | 145.13027 | 28845 ft | 464 kts | 172° |
| 2026-05-05 18:08 | 10.72927 | 145.13863 | 28844 ft | 466 kts | 172° |
| 2026-05-05 18:08 | 10.66522 | 145.14693 | 28838 ft | 462 kts | 172° |
| 2026-05-05 18:09 | 10.60097 | 145.15528 | 28843 ft | 465 kts | 172° |
| 2026-05-05 18:09 | 10.53701 | 145.16354 | 28837 ft | 463 kts | 172° |
| 2026-05-05 18:10 | 10.47299 | 145.17186 | 28842 ft | 468 kts | 172° |
| 2026-05-05 18:10 | 10.40863 | 145.18017 | 28834 ft | 465 kts | 172° |
| 2026-05-05 18:11 | 10.34443 | 145.18849 | 28837 ft | 464 kts | 172° |
| 2026-05-05 18:11 | 10.28026 | 145.19678 | 28832 ft | 467 kts | 172° |
| 2026-05-05 18:12 | 10.21565 | 145.20515 | 28834 ft | 468 kts | 172° |
| 2026-05-05 18:12 | 10.18365 | 145.20927 | 29196 ft | 462 kts | 172° |
| 2026-05-05 18:12 | 10.15281 | 145.21326 | 29562 ft | 439 kts | 172° |
| 2026-05-05 18:12 | 10.12301 | 145.21711 | 29889 ft | 427 kts | 172° |
| 2026-05-05 18:13 | 10.09343 | 145.22095 | 30213 ft | 431 kts | 172° |
| 2026-05-05 18:13 | 10.06348 | 145.22482 | 30563 ft | 436 kts | 172° |
| 2026-05-05 18:13 | 10.04336 | 145.22741 | 30796 ft | 443 kts | 172° |
| 2026-05-05 18:13 | 10.01248 | 145.23141 | 31164 ft | 452 kts | 172° |
| 2026-05-05 18:14 | 9.98117 | 145.23544 | 31533 ft | 453 kts | 172° |
| 2026-05-05 18:14 | 9.93992 | 145.24076 | 32003 ft | 444 kts | 172° |
| 2026-05-05 18:14 | 9.90970 | 145.24465 | 32327 ft | 432 kts | 171° |
| 2026-05-05 18:14 | 9.88990 | 145.24721 | 32550 ft | 434 kts | 171° |
| 2026-05-05 18:15 | 9.85966 | 145.25114 | 32925 ft | 442 kts | 172° |
| 2026-05-05 18:15 | 9.82889 | 145.25511 | 33315 ft | 447 kts | 172° |
| 2026-05-05 18:15 | 9.79801 | 145.25907 | 33712 ft | 447 kts | 172° |
| 2026-05-05 18:15 | 9.76723 | 145.26303 | 34049 ft | 446 kts | 171° |
| 2026-05-05 18:16 | 9.73631 | 145.26703 | 34384 ft | 450 kts | 172° |
| 2026-05-05 18:16 | 9.70507 | 145.27107 | 34702 ft | 455 kts | 172° |
| 2026-05-05 18:16 | 9.67337 | 145.27514 | 34791 ft | 459 kts | 172° |
| 2026-05-05 18:17 | 9.61032 | 145.28326 | 34809 ft | 453 kts | 172° |
| 2026-05-05 18:17 | 9.54821 | 145.29126 | 34807 ft | 453 kts | 171° |
| 2026-05-05 18:18 | 9.48559 | 145.29933 | 34812 ft | 453 kts | 171° |
| 2026-05-05 18:18 | 9.42313 | 145.30736 | 34816 ft | 452 kts | 171° |
| 2026-05-05 18:19 | 9.36021 | 145.31456 | 34822 ft | 454 kts | 174° |
| 2026-05-05 18:19 | 9.29730 | 145.32063 | 34818 ft | 455 kts | 173° |
| 2026-05-05 18:20 | 9.23430 | 145.32626 | 34822 ft | 457 kts | 174° |
| 2026-05-05 18:20 | 9.17104 | 145.33199 | 34818 ft | 454 kts | 174° |
| 2026-05-05 18:21 | 9.10809 | 145.33774 | 34813 ft | 455 kts | 173° |
| 2026-05-05 18:21 | 9.04484 | 145.34343 | 34815 ft | 456 kts | 173° |
| 2026-05-05 18:22 | 8.98171 | 145.34919 | 34814 ft | 456 kts | 174° |
| 2026-05-05 18:22 | 8.91822 | 145.35492 | 34815 ft | 458 kts | 173° |
| 2026-05-05 18:23 | 8.85525 | 145.36064 | 34814 ft | 456 kts | 174° |